Terminal Aerodrome Forecast
Issued by NWS

Home | Current Version | Previous Version | Graphics & Text | Print | Product List | Glossary On
Versions: 1 2 3 4 5 6 7 8 9 10 11 12 13 14
000
FTUS42 KMHX 012331
TAFISO
TAF
KISO 012331Z 0200/0224 32003KT 5SM -RADZ OVC005
     FM020700 24003KT 3SM BR OVC005
     FM021500 30005KT P6SM SCT007 OVC025
     FM021800 36010KT P6SM SCT025 BKN050
      AMD LTD TO CLD VIS AND WIND=

USA.gov is the U.S. government's official web portal to all federal, state and local government web resources and services.